Карточка аэропорта UNNT

Внимание!
Информация на этой странице в стадии наполнения.
Если вы не увидели какой-то информации, или заметили неточность - пожалуйста сообщите нам!
Спасибо!
Команда RU-STAFF
Название аэропортаТолмачево
Название аэропорта (англ.)Tolmachevo
Превышение367 ft. (111.9 m.)
Координаты55°0.77999999999989', 82°38.178'
Высота перехода6000ft
Эшелон переходаQNH>=1013hPa:FL70; QNH<1013hPa:FL80; QNH<977hPa:FL90
Коды ответчика5201-5227
Зона ОрВДНовосибирск РПИ (UNNT)
Данные METARUNNT 240830Z 17004MPS 9999 FEW046 29/17 Q1002 R25/090070 R16/090070 NOSIG RMK QFE742/0989
Проноз погоды (TAF)UNNT 240800Z 2409/2509 17003G09MPS 8000 BKN039CB TX28/2409Z TN18/2422Z TEMPO 2409/2509 -TSRA BECMG 2421/2501 27003G09MPS
NOTAMshow/hide NOTAM
AWOS   TABLE

Информация о ВПП

ВПП Длина ВПП (м.) Покрытие Курс ВПП Частота ILS
253597Асфальтобетон252108.5
163602Цементобетон161109.7
073597Асфальтобетон72110.1
343602Цементобетон341111.1

Диспетчерские позиции

Позывной Наименование органа УВД Частота
UNNT_APPНовосибирск-Подход127.5
UNNT_DEL Новосибирск-Деливери135.4
UNNT_GNDНовосибирск-Руление121.7
UNNT_R_APPНовосибирск-Круг122.0
UNNT_TWRНовосибирск-Вышка118.5



Спутниковое изображение